Time;durP1;ratioP1;P1;durP2;ratioP2;P2;SDS_P1;SDS_P2;PMS_P1;PMS_P2;Temp;Humidity;BMP_temperature;BMP_pressure;BME280_temperature;BME280_humidity;BME280_pressure;Samples;Min_cycle;Max_cycle;Signal;HPM_P1;HPM_P2
2021/10/31 00:00:46;;;;;;;22.20;15.70;;;;;;;4.35;71.20;98025.08;117357;1177;68596;-64
2021/10/31 00:03:17;;;;;;;23.10;15.00;;;;;;;4.26;73.47;98023.67;117362;1177;58684;-64
2021/10/31 00:05:47;;;;;;;17.90;11.00;;;;;;;4.22;72.94;98027.66;117453;1176;58729;-64
2021/10/31 00:08:16;;;;;;;25.30;16.10;;;;;;;4.21;73.32;98028.88;117391;1176;70590;-64
2021/10/31 00:10:48;;;;;;;21.50;14.60;;;;;;;4.13;74.41;98029.88;117204;1177;68339;-64
2021/10/31 00:13:17;;;;;;;27.00;16.90;;;;;;;4.08;74.27;98029.20;117365;1177;69041;-64
2021/10/31 00:15:47;;;;;;;25.20;16.00;;;;;;;3.99;75.40;98029.33;117411;1177;58687;-66
2021/10/31 00:18:17;;;;;;;24.30;16.70;;;;;;;4.00;75.67;98029.64;117181;1177;58719;-63
2021/10/31 00:20:47;;;;;;;20.50;15.10;;;;;;;4.01;75.77;98027.70;117166;1175;70559;-64
2021/10/31 00:23:17;;;;;;;17.30;12.20;;;;;;;4.01;76.09;98025.63;117342;1177;68393;-64
2021/10/31 00:25:47;;;;;;;16.40;10.30;;;;;;;4.02;75.73;98023.04;117441;1176;69327;-66
2021/10/31 00:28:16;;;;;;;16.80;11.30;;;;;;;4.06;73.55;98024.08;117276;1171;58742;-65
2021/10/31 00:30:46;;;;;;;18.50;11.80;;;;;;;4.10;73.28;98021.88;117290;1177;58716;-65
2021/10/31 00:33:15;;;;;;;23.30;13.80;;;;;;;4.11;72.97;98017.38;117430;1177;70501;-65
2021/10/31 00:35:45;;;;;;;19.50;12.80;;;;;;;4.06;72.75;98016.84;117349;1176;67691;-65
2021/10/31 00:38:14;;;;;;;13.50;9.60;;;;;;;3.98;73.12;98015.75;116972;1177;69298;-65
2021/10/31 00:40:44;;;;;;;19.90;13.80;;;;;;;3.88;73.29;98015.78;117106;1177;58739;-64
2021/10/31 00:43:14;;;;;;;18.60;12.50;;;;;;;3.77;73.93;98010.30;117428;1176;58726;-64
2021/10/31 00:45:44;;;;;;;19.40;11.50;;;;;;;3.72;72.33;98010.86;117341;1177;70315;-65
2021/10/31 00:48:14;;;;;;;20.30;14.10;;;;;;;3.59;74.61;98011.45;117322;1177;68100;-65
2021/10/31 00:50:48;;;;;;;25.70;16.00;;;;;;;3.48;75.58;98007.56;117060;1177;69109;-64
2021/10/31 00:53:19;;;;;;;22.30;14.70;;;;;;;3.39;76.03;98011.66;117436;1175;58710;-64
2021/10/31 00:55:48;;;;;;;17.50;11.60;;;;;;;3.31;76.13;98009.52;117002;1177;58774;-64
2021/10/31 00:58:18;;;;;;;21.40;13.60;;;;;;;3.26;75.23;98007.10;117346;1173;68757;-64
2021/10/31 01:00:48;;;;;;;24.00;15.10;;;;;;;3.19;77.28;98005.98;117356;1176;68392;-64
2021/10/31 01:03:19;;;;;;;23.60;14.80;;;;;;;3.11;79.07;98003.13;117173;1177;68343;-64
2021/10/31 01:05:53;;;;;;;22.30;14.90;;;;;;;3.07;79.38;98002.38;117412;1175;59110;-64
2021/10/31 01:08:40;;;;;;;18.40;12.20;;;;;;;3.03;78.63;98001.81;117380;1177;58740;-64
2021/10/31 01:11:28;;;;;;;21.00;13.80;;;;;;;3.00;78.17;97998.47;117380;1175;69754;-64
2021/10/31 01:14:40;;;;;;;17.80;11.10;;;;;;;2.96;78.41;98001.02;117356;1177;67549;-64
2021/10/31 01:17:23;;;;;;;23.30;13.90;;;;;;;2.93;77.12;97992.20;117067;1177;68228;-65
2021/10/31 01:20:14;;;;;;;22.80;13.50;;;;;;;2.89;78.84;97990.41;117447;1177;58729;-64
2021/10/31 01:23:03;;;;;;;13.20;9.40;;;;;;;2.88;77.81;97991.34;117424;1177;58730;-64
2021/10/31 01:25:37;;;;;;;19.60;10.60;;;;;;;2.88;76.19;97987.86;117311;1176;70757;-63
2021/10/31 01:28:20;;;;;;;18.80;10.40;;;;;;;2.91;75.92;97985.36;117305;1176;67473;-64
2021/10/31 01:31:28;;;;;;;15.60;10.10;;;;;;;2.94;75.54;97984.05;117407;1176;69457;-65
2021/10/31 01:34:19;;;;;;;13.00;8.70;;;;;;;2.98;75.41;97984.44;116750;1177;58763;-64
2021/10/31 01:37:18;;;;;;;13.30;8.40;;;;;;;2.96;75.81;97981.39;117364;1176;58729;-65
2021/10/31 01:39:56;;;;;;;19.20;11.80;;;;;;;2.92;75.95;97980.67;117424;1177;70521;-64
2021/10/31 01:42:37;;;;;;;13.20;8.10;;;;;;;2.90;75.40;97980.05;117401;1177;68523;-66
2021/10/31 01:45:12;;;;;;;;;;;;;;;2.87;76.22;97979.98;117413;1175;68883;-65
2021/10/31 01:47:59;;;;;;;17.90;11.10;;;;;;;2.82;78.13;97978.77;117211;1177;58684;-65
2021/10/31 01:50:41;;;;;;;22.10;14.20;;;;;;;2.77;77.27;97978.60;117263;1177;58738;-66
2021/10/31 01:53:29;;;;;;;16.00;10.50;;;;;;;2.70;78.87;97978.30;116969;1177;69988;-66
2021/10/31 01:56:08;;;;;;;12.20;7.90;;;;;;;2.69;76.70;97979.55;116963;1177;67558;-66
2021/10/31 01:58:44;;;;;;;23.00;14.10;;;;;;;2.64;77.19;97974.89;117068;1177;69536;-65
2021/10/31 02:01:16;;;;;;;23.20;14.20;;;;;;;2.54;79.25;97974.52;117370;1176;58710;-64
2021/10/31 02:03:49;;;;;;;15.40;9.30;;;;;;;2.47;78.49;97971.63;117218;1176;58742;-64
2021/10/31 02:06:22;;;;;;;19.50;11.90;;;;;;;2.41;77.25;97968.72;117380;1177;70575;-64
2021/10/31 02:08:54;;;;;;;25.00;14.70;;;;;;;2.32;78.78;97964.87;117418;1177;69380;-64
2021/10/31 02:11:24;;;;;;;19.40;11.30;;;;;;;2.21;79.66;97962.46;117349;1177;68324;-65
2021/10/31 02:13:55;;;;;;;25.60;14.10;;;;;;;2.15;79.38;97960.42;117291;1177;58713;-64
2021/10/31 02:16:25;;;;;;;24.70;14.40;;;;;;;2.08;80.55;97962.00;117438;1177;58712;-64
2021/10/31 02:19:02;;;;;;;23.10;12.70;;;;;;;2.03;80.87;97961.63;117394;1176;70567;-64
2021/10/31 02:21:35;;;;;;;24.00;14.10;;;;;;;2.00;80.91;97967.90;117154;1177;67628;-64
2021/10/31 02:24:08;;;;;;;22.00;12.70;;;;;;;2.00;79.16;97971.02;117252;1177;68624;-65
2021/10/31 02:26:38;;;;;;;9.50;5.40;;;;;;;2.00;79.22;97971.70;117141;1177;58725;-66
2021/10/31 02:29:08;;;;;;;;;;;;;;;2.01;77.48;97968.02;117196;1176;58694;-65
2021/10/31 02:31:38;;;;;;;;;;;;;;;2.01;78.71;97968.55;117421;1176;70381;-66
2021/10/31 02:34:09;;;;;;;22.90;13.20;;;;;;;1.97;81.72;97974.02;117290;1177;67648;-65
2021/10/31 02:36:39;;;;;;;;;;;;;;;1.91;82.09;97969.71;117458;1177;68401;-64
2021/10/31 02:39:11;;;;;;;15.70;10.30;;;;;;;1.88;80.04;97967.92;117437;1177;58677;-65
2021/10/31 02:41:41;;;;;;;12.00;7.20;;;;;;;1.83;79.40;97965.84;117181;1176;58704;-64
2021/10/31 02:44:11;;;;;;;12.40;8.40;;;;;;;1.77;78.21;97964.45;117071;1176;68716;-65
2021/10/31 02:46:41;;;;;;;10.80;6.90;;;;;;;1.73;77.11;97963.36;117129;1177;68203;-64
2021/10/31 02:49:12;;;;;;;15.40;9.60;;;;;;;1.69;76.75;97961.92;116976;1177;68426;-64
2021/10/31 02:52:07;;;;;;;20.10;11.10;;;;;;;1.63;77.52;97956.95;117251;1177;58741;-64
2021/10/31 02:55:02;;;;;;;22.20;13.60;;;;;;;1.56;78.56;97957.16;116831;1176;58930;-64
2021/10/31 02:57:54;;;;;;;25.10;14.10;;;;;;;1.49;80.06;97957.88;117183;1170;70600;-65
2021/10/31 03:00:28;;;;;;;16.00;10.00;;;;;;;1.42;79.99;97959.61;117301;1177;68399;-64
2021/10/31 03:03:00;;;;;;;17.50;10.40;;;;;;;1.36;80.02;97958.75;117177;1177;68268;-63
2021/10/31 03:05:29;;;;;;;15.80;11.20;;;;;;;1.31;80.14;97959.38;117481;1177;58693;-66
2021/10/31 03:08:00;;;;;;;12.00;7.80;;;;;;;1.27;79.44;97957.09;117098;1176;58644;-66
2021/10/31 03:10:30;;;;;;;17.60;10.60;;;;;;;1.24;79.73;97964.56;117416;1177;70355;-65
2021/10/31 03:13:00;;;;;;;21.60;13.00;;;;;;;1.21;78.85;97962.39;117387;1177;67668;-64
2021/10/31 03:15:30;;;;;;;16.20;10.70;;;;;;;1.19;81.08;97963.98;117133;1177;68426;-64
2021/10/31 03:18:00;;;;;;;19.10;12.20;;;;;;;1.18;80.33;97966.06;117418;1175;58700;-64
2021/10/31 03:20:30;;;;;;;19.80;11.70;;;;;;;1.18;79.55;97960.25;117403;1174;58688;-64
2021/10/31 03:23:00;;;;;;;22.30;13.50;;;;;;;1.16;79.59;97964.59;117425;1176;70569;-64
2021/10/31 03:25:30;;;;;;;17.10;11.80;;;;;;;1.12;79.37;97959.90;117393;1177;67618;-65
2021/10/31 03:28:00;;;;;;;14.10;9.30;;;;;;;1.07;78.38;97961.58;117391;1176;68510;-64
2021/10/31 03:30:32;;;;;;;23.20;14.00;;;;;;;0.99;78.30;97961.08;117136;1177;58708;-64
2021/10/31 03:33:02;;;;;;;21.10;12.00;;;;;;;0.91;80.24;97963.52;117100;1177;58710;-64
2021/10/31 03:35:32;;;;;;;18.00;9.40;;;;;;;0.89;81.45;97966.33;117201;1177;70551;-64
2021/10/31 03:38:04;;;;;;;28.50;16.90;;;;;;;0.93;80.40;97959.36;117256;1177;67874;-64
2021/10/31 03:40:35;;;;;;;21.40;11.80;;;;;;;0.92;84.56;97959.88;117036;1177;69055;-63
2021/10/31 03:43:06;;;;;;;24.00;13.60;;;;;;;0.91;83.18;97960.08;117317;1177;58742;-63
2021/10/31 03:45:38;;;;;;;18.00;11.50;;;;;;;0.88;83.33;97959.98;117251;1177;58726;-64
2021/10/31 03:48:08;;;;;;;16.80;10.10;;;;;;;0.86;82.22;97963.83;117272;1177;70410;-65
2021/10/31 03:50:38;;;;;;;15.20;10.30;;;;;;;0.83;81.71;97965.43;117283;1176;67528;-65
2021/10/31 03:53:08;;;;;;;10.50;7.40;;;;;;;0.80;81.03;97967.22;117080;1177;69240;-64
2021/10/31 03:55:37;;;;;;;26.10;15.60;;;;;;;0.77;81.84;97967.99;116926;1177;58729;-64
2021/10/31 03:58:06;;;;;;;14.90;9.50;;;;;;;0.73;84.04;97968.09;117004;1177;58712;-64
2021/10/31 04:00:36;;;;;;;14.60;9.90;;;;;;;0.72;82.10;97971.21;117078;1177;70314;-64
2021/10/31 04:03:06;;;;;;;15.10;10.10;;;;;;;0.70;81.25;97972.64;117381;1175;67610;-64
2021/10/31 04:05:36;;;;;;;11.70;7.40;;;;;;;0.67;80.62;97969.11;117410;1177;68456;-64
2021/10/31 04:08:06;;;;;;;18.00;12.00;;;;;;;0.63;79.58;97963.70;117269;1171;58729;-64
2021/10/31 04:10:35;;;;;;;15.20;11.40;;;;;;;0.59;80.96;97962.95;117265;1177;58720;-64
2021/10/31 04:13:05;;;;;;;21.90;13.70;;;;;;;0.55;80.05;97960.47;117398;1175;70605;-64
2021/10/31 04:15:35;;;;;;;18.20;11.30;;;;;;;0.50;80.98;97956.45;117423;1177;67471;-64
2021/10/31 04:18:04;;;;;;;13.00;8.30;;;;;;;0.47;80.76;97957.21;117401;1175;68223;-64
2021/10/31 04:20:33;;;;;;;22.60;13.30;;;;;;;0.42;80.81;97954.59;117433;1176;58687;-64
2021/10/31 04:23:03;;;;;;;21.30;12.50;;;;;;;0.37;80.63;97949.91;117409;1176;58014;-64
2021/10/31 04:25:33;;;;;;;17.30;11.50;;;;;;;0.31;80.69;97945.23;117409;1177;70362;-64
2021/10/31 04:28:02;;;;;;;19.80;12.10;;;;;;;0.28;80.21;97943.44;117152;1178;68377;-66
2021/10/31 04:30:31;;;;;;;19.20;12.20;;;;;;;0.24;81.45;97938.05;117448;1176;69183;-64
2021/10/31 04:33:01;;;;;;;16.30;9.80;;;;;;;0.21;81.84;97940.15;117064;1177;58700;-64
2021/10/31 04:35:30;;;;;;;25.60;14.20;;;;;;;0.19;81.68;97936.63;117465;1175;58745;-65
2021/10/31 04:38:08;;;;;;;12.20;8.70;;;;;;;0.17;81.91;97936.48;117366;1175;69758;-64
2021/10/31 04:40:39;;;;;;;12.00;7.50;;;;;;;0.15;80.75;97936.36;117437;1177;67718;-64
2021/10/31 04:43:12;;;;;;;10.70;7.00;;;;;;;0.12;80.05;97930.60;117459;1177;69136;-65
2021/10/31 04:45:44;;;;;;;14.80;8.80;;;;;;;0.09;79.59;97929.98;117441;1176;58732;-64
2021/10/31 04:48:13;;;;;;;14.40;9.50;;;;;;;0.05;79.54;97928.38;117239;1177;58745;-64
2021/10/31 04:50:42;;;;;;;18.30;11.80;;;;;;;-0.01;79.45;97924.05;117312;1178;69776;-64
2021/10/31 04:53:11;;;;;;;24.70;14.10;;;;;;;-0.06;80.08;97926.03;117391;1176;67553;-64
2021/10/31 04:55:42;;;;;;;16.80;11.30;;;;;;;-0.12;82.23;97926.00;117290;1177;68480;-66
2021/10/31 04:58:11;;;;;;;;;;;;;;;-0.18;82.60;97926.14;117463;1176;58755;-67
2021/10/31 05:00:40;;;;;;;32.30;17.10;;;;;;;-0.27;83.41;97929.57;117328;1175;58721;-65
2021/10/31 05:03:10;;;;;;;32.40;17.90;;;;;;;-0.35;83.30;97927.35;117364;1177;71231;-66
2021/10/31 05:05:39;;;;;;;30.80;16.50;;;;;;;-0.42;83.59;97927.67;117376;1175;67625;-65
2021/10/31 05:08:08;;;;;;;25.20;14.40;;;;;;;-0.52;84.33;97926.67;117298;1176;68880;-65
2021/10/31 05:10:37;;;;;;;19.40;11.30;;;;;;;-0.55;84.03;97923.48;117351;1177;58733;-65
2021/10/31 05:13:07;;;;;;;26.50;15.10;;;;;;;-0.56;83.79;97920.09;117012;1177;58707;-65
2021/10/31 05:15:36;;;;;;;18.10;11.20;;;;;;;-0.58;84.26;97917.39;117081;1177;70534;-65
2021/10/31 05:18:06;;;;;;;13.70;9.90;;;;;;;-0.59;83.02;97915.51;117388;1177;67962;-64
2021/10/31 05:20:35;;;;;;;14.90;9.50;;;;;;;-0.57;82.29;97911.02;117325;1177;68374;-66
2021/10/31 05:23:04;;;;;;;15.20;9.80;;;;;;;-0.56;82.55;97912.88;117361;1176;58751;-65
2021/10/31 05:25:33;;;;;;;15.90;11.00;;;;;;;-0.53;82.53;97911.45;117351;1176;58739;-65
2021/10/31 05:28:02;;;;;;;11.50;8.30;;;;;;;-0.50;82.36;97911.23;117357;1177;70120;-65
2021/10/31 05:30:31;;;;;;;13.50;9.80;;;;;;;-0.46;82.40;97914.22;117340;1177;68388;-64
2021/10/31 05:33:00;;;;;;;11.10;6.70;;;;;;;-0.42;81.29;97910.71;117364;1176;68878;-64
2021/10/31 05:35:30;;;;;;;16.30;9.90;;;;;;;-0.35;79.48;97912.45;117301;1176;58706;-64
2021/10/31 05:38:00;;;;;;;14.20;9.20;;;;;;;-0.28;79.99;97910.08;117187;1177;58700;-65
2021/10/31 05:40:29;;;;;;;;;;;;;;;-0.24;80.64;97914.61;117382;1177;70584;-67
2021/10/31 05:42:58;;;;;;;13.40;8.00;;;;;;;-0.21;80.96;97916.95;117398;1176;68447;-66
2021/10/31 05:45:27;;;;;;;26.70;16.10;;;;;;;-0.19;80.59;97920.66;116977;1177;68506;-65
2021/10/31 05:47:56;;;;;;;15.80;10.60;;;;;;;-0.17;81.22;97927.83;117328;1176;58730;-64
2021/10/31 05:50:25;;;;;;;21.30;12.30;;;;;;;-0.14;80.65;97929.14;117377;1177;58724;-64
2021/10/31 05:52:54;;;;;;;25.20;15.10;;;;;;;-0.11;80.71;97931.80;117104;1177;71247;-65
2021/10/31 05:55:23;;;;;;;24.30;16.60;;;;;;;-0.09;81.00;97931.77;117050;1177;67715;-64
2021/10/31 05:57:52;;;;;;;24.10;14.50;;;;;;;-0.08;80.98;97933.27;116966;1177;69224;-64
2021/10/31 06:00:21;;;;;;;20.60;13.60;;;;;;;-0.03;80.36;97935.73;117408;1176;58719;-64
2021/10/31 06:02:50;;;;;;;13.70;8.90;;;;;;;0.04;80.42;97938.15;117228;1176;58800;-64
2021/10/31 06:05:20;;;;;;;13.30;7.70;;;;;;;0.13;79.16;97937.78;117137;1177;71338;-66
2021/10/31 06:07:49;;;;;;;17.40;10.20;;;;;;;0.23;78.78;97938.59;117486;1176;67656;-64
2021/10/31 06:10:18;;;;;;;17.80;11.00;;;;;;;0.34;79.36;97941.93;117428;1177;69850;-64
2021/10/31 06:12:48;;;;;;;22.50;13.40;;;;;;;0.46;80.10;97945.25;116985;1177;58674;-65
2021/10/31 06:15:21;;;;;;;16.70;10.60;;;;;;;0.62;79.11;97950.86;117019;1177;58831;-63
2021/10/31 06:17:50;;;;;;;20.80;12.90;;;;;;;0.76;80.40;97951.19;117286;1177;71226;-64
2021/10/31 06:20:19;;;;;;;19.70;11.30;;;;;;;0.92;80.86;97953.36;117433;1175;69059;-65
2021/10/31 06:22:48;;;;;;;18.60;11.20;;;;;;;1.24;80.39;97955.96;117268;1177;69459;-65
2021/10/31 06:25:17;;;;;;;12.50;7.90;;;;;;;1.62;79.42;97956.47;117281;1177;58640;-64
2021/10/31 06:27:46;;;;;;;16.50;11.00;;;;;;;2.03;78.65;97956.63;117482;1177;58729;-64
2021/10/31 06:30:15;;;;;;;20.20;13.00;;;;;;;2.55;76.26;97957.80;117410;1175;70568;-65
2021/10/31 06:32:44;;;;;;;16.40;11.90;;;;;;;3.02;74.14;97966.21;117210;1177;68445;-65
2021/10/31 06:35:13;;;;;;;21.10;14.60;;;;;;;3.52;72.41;97965.88;117410;1177;69267;-64
2021/10/31 06:37:42;;;;;;;29.80;20.60;;;;;;;4.12;72.33;97966.77;117424;1176;58739;-64
2021/10/31 06:40:12;;;;;;;34.90;22.70;;;;;;;4.79;71.80;97969.64;117239;1177;58671;-65
2021/10/31 06:42:41;;;;;;;25.90;18.40;;;;;;;5.39;70.62;97969.05;117430;1166;70645;-64
2021/10/31 06:45:10;;;;;;;19.20;13.50;;;;;;;5.96;70.52;97963.78;117413;1176;69072;-64
2021/10/31 06:47:39;;;;;;;21.50;14.70;;;;;;;6.61;67.23;97966.28;117455;1168;69202;-64
2021/10/31 06:50:08;;;;;;;26.80;20.10;;;;;;;7.27;65.84;97971.34;117191;1177;58742;-65
2021/10/31 06:52:37;;;;;;;19.70;14.70;;;;;;;7.95;63.87;97969.19;117369;1175;58721;-64
2021/10/31 06:55:10;;;;;;;26.30;19.90;;;;;;;8.48;60.58;97973.63;117389;1175;69934;-65
2021/10/31 06:57:40;;;;;;;30.80;22.80;;;;;;;8.99;60.61;97973.23;117386;1177;68373;-65
2021/10/31 07:00:10;;;;;;;23.10;16.60;;;;;;;9.48;57.45;97972.44;117364;1176;68428;-66
2021/10/31 07:02:39;;;;;;;24.80;19.10;;;;;;;9.88;56.33;97968.48;117360;1173;58707;-66
2021/10/31 07:05:09;;;;;;;35.30;25.50;;;;;;;10.18;53.29;97966.44;117394;1175;58692;-65
2021/10/31 07:07:38;;;;;;;23.50;18.20;;;;;;;10.40;50.70;97966.33;117362;1177;70802;-64
2021/10/31 07:10:07;;;;;;;18.10;15.00;;;;;;;10.87;52.86;97967.09;117402;1175;67621;-64
2021/10/31 07:12:37;;;;;;;23.90;19.70;;;;;;;11.50;52.20;97968.48;117383;1176;69238;-65
2021/10/31 07:15:07;;;;;;;23.50;18.20;;;;;;;12.03;50.88;97966.25;117401;1176;58719;-65
2021/10/31 07:17:38;;;;;;;24.30;19.30;;;;;;;12.52;50.60;97968.10;117387;1175;58725;-65
2021/10/31 07:20:10;;;;;;;27.60;21.40;;;;;;;12.94;47.92;97966.24;117325;1177;69898;-64
2021/10/31 07:22:40;;;;;;;24.10;20.20;;;;;;;13.28;44.61;97965.66;117448;1175;68413;-64
2021/10/31 07:25:10;;;;;;;19.90;16.00;;;;;;;13.68;45.75;97957.95;117394;1176;68502;-65
2021/10/31 07:27:39;;;;;;;19.40;14.60;;;;;;;14.08;45.34;97950.74;117336;1176;58694;-65
2021/10/31 07:30:09;;;;;;;18.20;14.00;;;;;;;14.43;44.75;97948.68;117225;1176;58687;-65
2021/10/31 07:32:38;;;;;;;;;;;;;;;14.79;44.32;97946.31;117208;1177;70627;-65
2021/10/31 07:35:07;;;;;;;25.90;18.00;;;;;;;15.06;42.69;97942.69;117372;1177;68417;-65
2021/10/31 07:37:37;;;;;;;40.50;28.40;;;;;;;15.40;42.50;97941.84;117315;1175;68427;-65
2021/10/31 07:40:07;;;;;;;38.80;25.60;;;;;;;15.78;41.42;97939.30;117342;1177;58697;-65
2021/10/31 07:42:37;;;;;;;28.90;18.40;;;;;;;16.02;39.05;97937.13;117379;1176;58681;-64
2021/10/31 07:45:07;;;;;;;20.30;14.60;;;;;;;16.44;40.20;97936.05;117380;1175;70019;-67
2021/10/31 07:47:36;;;;;;;17.70;13.90;;;;;;;16.86;40.47;97939.58;117243;1175;67392;-64
2021/10/31 07:50:06;;;;;;;16.50;13.40;;;;;;;17.34;39.18;97938.01;117342;1176;69895;-64
2021/10/31 07:52:42;;;;;;;19.20;14.20;;;;;;;17.84;36.74;97929.95;117420;1171;58701;-65
2021/10/31 07:55:15;;;;;;;18.30;13.70;;;;;;;18.34;37.23;97928.90;117316;1176;58735;-64
2021/10/31 07:57:47;;;;;;;16.70;12.60;;;;;;;18.92;36.38;97927.48;117391;1175;69879;-64
2021/10/31 08:00:20;;;;;;;12.70;8.80;;;;;;;19.57;36.10;97926.20;117330;1175;67582;-64
2021/10/31 08:02:48;;;;;;;16.30;13.30;;;;;;;20.17;35.14;97923.92;117282;1176;69088;-65
2021/10/31 08:05:23;;;;;;;13.20;11.20;;;;;;;20.46;30.41;97916.62;117404;1176;58738;-64
2021/10/31 08:07:53;;;;;;;13.40;11.30;;;;;;;20.77;31.88;97922.50;117433;1176;59158;-64
2021/10/31 08:10:22;;;;;;;18.90;15.10;;;;;;;21.00;30.46;97924.98;117087;1177;69900;-65
2021/10/31 08:12:51;;;;;;;14.30;12.10;;;;;;;20.57;29.22;97915.98;117342;1176;67414;-61
2021/10/31 08:15:20;;;;;;;17.50;14.40;;;;;;;20.27;30.11;97913.81;117247;1176;69421;-64
2021/10/31 08:17:49;;;;;;;15.20;12.00;;;;;;;19.32;30.32;97917.02;117303;1176;58778;-63
2021/10/31 08:20:18;;;;;;;19.80;14.80;;;;;;;19.43;31.10;97911.27;117261;1177;58738;-63
2021/10/31 08:22:48;;;;;;;15.50;13.70;;;;;;;19.43;31.09;97906.55;117196;1175;71163;-65
2021/10/31 08:25:17;;;;;;;17.40;13.60;;;;;;;20.04;30.32;97909.09;117290;1177;68705;-66
2021/10/31 08:27:46;;;;;;;14.40;11.60;;;;;;;20.22;29.80;97906.39;117199;1175;69231;-62
2021/10/31 08:30:15;;;;;;;16.60;14.10;;;;;;;20.55;28.47;97905.62;117321;1177;58719;-64
2021/10/31 08:32:48;;;;;;;13.30;11.30;;;;;;;20.45;29.24;97897.61;117401;1176;58777;-65
2021/10/31 08:35:17;;;;;;;25.40;19.20;;;;;;;20.98;28.60;97897.86;117428;1176;69615;-64
2021/10/31 08:37:46;;;;;;;21.00;16.00;;;;;;;21.01;28.07;97895.66;117410;1177;68523;-64
2021/10/31 08:40:15;;;;;;;16.20;12.90;;;;;;;19.92;28.63;97893.38;117395;1168;69814;-64
2021/10/31 08:42:44;;;;;;;11.70;9.90;;;;;;;19.53;29.63;97892.23;117443;1175;58822;-65
2021/10/31 08:45:13;;;;;;;11.70;8.80;;;;;;;20.22;29.66;97894.00;117317;1176;58719;-66
2021/10/31 08:47:42;;;;;;;12.50;10.10;;;;;;;20.95;27.89;97888.38;117364;1175;70504;-66
2021/10/31 08:50:11;;;;;;;12.60;10.70;;;;;;;21.47;26.32;97883.60;117304;1177;67595;-66
2021/10/31 08:52:42;;;;;;;13.10;10.90;;;;;;;21.47;26.42;97881.80;117364;1176;69165;-66
2021/10/31 08:55:11;;;;;;;12.70;9.80;;;;;;;21.74;26.61;97881.02;117317;1177;58766;-67
2021/10/31 08:57:40;;;;;;;12.80;10.40;;;;;;;22.42;26.81;97879.22;117355;1176;58755;-64
2021/10/31 09:00:11;;;;;;;15.10;12.60;;;;;;;22.98;24.96;97880.73;117337;1175;70475;-64
2021/10/31 09:02:45;;;;;;;12.70;10.50;;;;;;;22.83;24.73;97881.17;117399;1175;67653;-65
2021/10/31 09:05:14;;;;;;;12.60;10.50;;;;;;;23.16;24.76;97875.58;117311;1176;69448;-63
2021/10/31 09:07:43;;;;;;;12.00;10.80;;;;;;;23.54;24.56;97876.86;117266;1176;58768;-65
2021/10/31 09:10:12;;;;;;;14.10;12.10;;;;;;;24.03;23.55;97874.00;117370;1176;58681;-64
2021/10/31 09:12:44;;;;;;;;;;;;;;;24.20;23.47;97866.55;117373;1176;71044;-64
2021/10/31 09:15:13;;;;;;;13.50;11.70;;;;;;;23.62;23.32;97869.60;117296;1175;67805;-64
2021/10/31 09:17:44;;;;;;;14.20;11.90;;;;;;;22.65;24.52;97866.30;117279;1176;69278;-64
2021/10/31 09:20:13;;;;;;;14.40;12.40;;;;;;;22.15;25.53;97859.39;117376;1176;59164;-65
2021/10/31 09:22:44;;;;;;;10.00;8.20;;;;;;;22.48;24.74;97858.02;117431;1176;58672;-65
2021/10/31 09:25:13;;;;;;;10.20;8.20;;;;;;;23.60;24.02;97853.67;117275;1176;70547;-63
2021/10/31 09:27:42;;;;;;;10.00;8.20;;;;;;;24.83;23.86;97850.05;117150;1176;67756;-65
2021/10/31 09:30:11;;;;;;;13.00;10.30;;;;;;;26.10;22.53;97843.37;117240;1177;68204;-67
2021/10/31 09:32:48;;;;;;;9.30;8.30;;;;;;;27.18;21.04;97840.39;117364;1177;58723;-65
2021/10/31 09:35:21;;;;;;;9.20;7.90;;;;;;;28.19;20.75;97837.82;117411;1175;58731;-64
2021/10/31 09:37:55;;;;;;;9.50;8.00;;;;;;;29.12;19.94;97839.10;116996;1177;71140;-66
2021/10/31 09:40:25;;;;;;;14.80;12.70;;;;;;;29.80;18.56;97833.61;117393;1176;66874;-63
2021/10/31 09:42:55;;;;;;;14.10;12.20;;;;;;;29.27;16.95;97830.44;117317;1175;69837;-64
2021/10/31 09:45:26;;;;;;;13.60;11.80;;;;;;;27.91;18.21;97820.58;117390;1175;58678;-64
2021/10/31 09:48:08;;;;;;;11.60;9.30;;;;;;;28.18;18.61;97816.10;117074;1177;58670;-65
2021/10/31 09:50:44;;;;;;;9.80;8.70;;;;;;;29.00;19.34;97818.65;117394;1175;69706;-64
2021/10/31 09:53:17;;;;;;;10.00;8.30;;;;;;;29.85;17.87;97809.63;117276;1177;68321;-64
2021/10/31 09:55:47;;;;;;;14.10;11.50;;;;;;;30.20;15.96;97810.86;117471;1175;69341;-66
2021/10/31 09:58:26;;;;;;;12.80;9.50;;;;;;;29.80;15.84;97808.20;117456;1177;58684;-65
2021/10/31 10:00:59;;;;;;;12.70;11.20;;;;;;;29.75;16.11;97801.23;117407;1177;58745;-65
2021/10/31 10:03:35;;;;;;;11.40;9.70;;;;;;;29.61;15.83;97797.55;117425;1168;71166;-64
2021/10/31 10:06:22;;;;;;;13.00;11.70;;;;;;;29.80;15.96;97789.95;117377;1177;67769;-65
2021/10/31 10:09:04;;;;;;;13.30;9.30;;;;;;;28.87;16.91;97790.63;117213;1177;69945;-65
2021/10/31 10:11:42;;;;;;;9.60;8.50;;;;;;;29.69;16.65;97786.67;117407;1176;58729;-64
2021/10/31 10:14:28;;;;;;;11.90;10.30;;;;;;;30.52;16.64;97784.61;117404;1175;58720;-66
2021/10/31 10:17:00;;;;;;;13.70;12.10;;;;;;;31.32;16.60;97779.41;117317;1176;70684;-66
2021/10/31 10:19:35;;;;;;;11.10;9.90;;;;;;;31.65;15.90;97777.02;117132;1176;68627;-65
2021/10/31 10:22:10;;;;;;;12.40;10.60;;;;;;;31.96;15.52;97773.59;117156;1176;68447;-64
2021/10/31 10:25:00;;;;;;;11.30;9.30;;;;;;;32.26;15.45;97773.28;116975;1177;58731;-65
2021/10/31 10:27:35;;;;;;;13.50;10.50;;;;;;;32.08;14.93;97764.86;116913;1177;58736;-64
2021/10/31 10:30:12;;;;;;;12.30;11.10;;;;;;;32.20;15.06;97762.43;116953;1177;69740;-64
2021/10/31 10:32:56;;;;;;;12.00;9.90;;;;;;;32.19;14.67;97755.33;116957;1177;68505;-65
2021/10/31 10:35:28;;;;;;;10.20;9.20;;;;;;;32.20;14.64;97755.35;116946;1173;69326;-65
2021/10/31 10:37:58;;;;;;;11.10;9.50;;;;;;;32.54;14.44;97751.10;117087;1177;58718;-65
2021/10/31 10:40:29;;;;;;;13.40;11.50;;;;;;;32.80;14.52;97750.84;117002;1177;58745;-65
2021/10/31 10:42:59;;;;;;;9.60;8.60;;;;;;;32.89;14.24;97747.86;116919;1177;70597;-64
2021/10/31 10:45:32;;;;;;;10.20;8.80;;;;;;;32.68;13.82;97742.40;117189;1177;68380;-67
2021/10/31 10:48:08;;;;;;;14.00;12.50;;;;;;;32.50;13.91;97733.92;117172;1177;68467;-67
2021/10/31 10:50:43;;;;;;;13.30;11.90;;;;;;;31.19;14.46;97725.33;116887;1177;58710;-67
2021/10/31 10:53:22;;;;;;;13.90;12.50;;;;;;;30.45;15.08;97723.90;116894;1178;58734;-65
2021/10/31 10:55:52;;;;;;;14.50;12.60;;;;;;;29.65;15.47;97721.00;116894;1177;70558;-65
2021/10/31 10:58:22;;;;;;;13.00;10.80;;;;;;;27.66;16.97;97714.02;116820;1178;67956;-66
2021/10/31 11:00:55;;;;;;;14.60;13.10;;;;;;;28.11;17.12;97707.17;116853;1178;68577;-66
2021/10/31 11:03:31;;;;;;;11.20;9.90;;;;;;;28.18;16.97;97708.02;116893;1178;58748;-66
2021/10/31 11:06:03;;;;;;;14.00;11.70;;;;;;;28.43;16.35;97704.93;117095;1177;58729;-65
2021/10/31 11:08:33;;;;;;;10.50;9.10;;;;;;;28.87;16.41;97703.39;117227;1177;70991;-66
2021/10/31 11:11:12;;;;;;;13.30;11.90;;;;;;;28.78;16.06;97702.56;117018;1177;68393;-65
2021/10/31 11:13:52;;;;;;;;;;;;;;;29.02;16.22;97696.14;117192;1176;69855;-66
2021/10/31 11:16:22;;;;;;;13.60;11.90;;;;;;;28.91;16.03;97693.56;116900;1177;58742;-65
2021/10/31 11:18:51;;;;;;;13.80;12.30;;;;;;;28.34;16.17;97694.59;117236;1177;58796;-65
2021/10/31 11:21:20;;;;;;;14.70;12.80;;;;;;;27.12;17.14;97689.89;117348;1175;70863;-65
2021/10/31 11:23:56;;;;;;;13.30;11.40;;;;;;;26.19;18.28;97682.31;117291;1176;69160;-65
2021/10/31 11:26:28;;;;;;;10.10;8.70;;;;;;;27.26;17.59;97681.44;117257;1175;69217;-66
2021/10/31 11:28:58;;;;;;;13.70;12.20;;;;;;;27.39;17.32;97677.69;117304;1175;58662;-65
2021/10/31 11:31:28;;;;;;;13.00;9.70;;;;;;;26.98;17.55;97673.48;117410;1176;58761;-65
2021/10/31 11:33:58;;;;;;;15.20;12.20;;;;;;;26.79;17.48;97669.84;117152;1177;69911;-68
2021/10/31 11:36:28;;;;;;;13.60;11.30;;;;;;;26.60;17.63;97669.54;116969;1177;67716;-68
2021/10/31 11:38:59;;;;;;;10.60;9.10;;;;;;;27.30;17.59;97666.67;117308;1176;69282;-66